sensor_id;sensor_type;location;lat;lon;timestamp;P1;durP1;ratioP1;P2;durP2;ratioP2
29938;SDS011;16799;50.844;5.304;2023-02-13T00:00:56;74.90;;;31.03;;
29938;SDS011;16799;50.844;5.304;2023-02-13T00:03:22;66.20;;;30.80;;
29938;SDS011;16799;50.844;5.304;2023-02-13T00:05:47;66.43;;;31.80;;
29938;SDS011;16799;50.844;5.304;2023-02-13T00:08:13;61.37;;;26.73;;
29938;SDS011;16799;50.844;5.304;2023-02-13T00:10:39;59.83;;;27.30;;
29938;SDS011;16799;50.844;5.304;2023-02-13T00:13:04;58.27;;;26.80;;
29938;SDS011;16799;50.844;5.304;2023-02-13T00:15:30;60.10;;;28.00;;
29938;SDS011;16799;50.844;5.304;2023-02-13T00:17:56;53.70;;;26.30;;
29938;SDS011;16799;50.844;5.304;2023-02-13T00:20:22;47.23;;;23.83;;
29938;SDS011;16799;50.844;5.304;2023-02-13T00:22:47;54.53;;;26.47;;
29938;SDS011;16799;50.844;5.304;2023-02-13T00:25:13;68.13;;;25.97;;
29938;SDS011;16799;50.844;5.304;2023-02-13T00:27:39;86.10;;;29.03;;
29938;SDS011;16799;50.844;5.304;2023-02-13T00:30:05;90.63;;;33.27;;
29938;SDS011;16799;50.844;5.304;2023-02-13T00:32:31;274.20;;;41.47;;
29938;SDS011;16799;50.844;5.304;2023-02-13T00:34:57;377.63;;;48.90;;
29938;SDS011;16799;50.844;5.304;2023-02-13T00:37:23;273.83;;;39.87;;
29938;SDS011;16799;50.844;5.304;2023-02-13T00:39:49;300.23;;;40.90;;
29938;SDS011;16799;50.844;5.304;2023-02-13T00:42:15;201.93;;;38.27;;
29938;SDS011;16799;50.844;5.304;2023-02-13T00:44:40;352.13;;;51.10;;
29938;SDS011;16799;50.844;5.304;2023-02-13T00:47:06;328.33;;;50.13;;
29938;SDS011;16799;50.844;5.304;2023-02-13T00:49:31;254.20;;;39.90;;
29938;SDS011;16799;50.844;5.304;2023-02-13T00:51:57;127.77;;;30.73;;
29938;SDS011;16799;50.844;5.304;2023-02-13T00:54:23;353.83;;;41.37;;
29938;SDS011;16799;50.844;5.304;2023-02-13T00:56:48;211.90;;;37.80;;
29938;SDS011;16799;50.844;5.304;2023-02-13T00:59:14;46.27;;;22.70;;
29938;SDS011;16799;50.844;5.304;2023-02-13T01:01:41;65.00;;;29.37;;
29938;SDS011;16799;50.844;5.304;2023-02-13T01:04:07;328.57;;;39.33;;
29938;SDS011;16799;50.844;5.304;2023-02-13T01:06:32;81.13;;;29.10;;
29938;SDS011;16799;50.844;5.304;2023-02-13T01:08:58;323.43;;;43.50;;
29938;SDS011;16799;50.844;5.304;2023-02-13T01:11:24;222.90;;;41.30;;
29938;SDS011;16799;50.844;5.304;2023-02-13T01:13:50;400.93;;;58.93;;
29938;SDS011;16799;50.844;5.304;2023-02-13T01:16:15;495.03;;;84.23;;
29938;SDS011;16799;50.844;5.304;2023-02-13T01:18:42;384.53;;;64.67;;
29938;SDS011;16799;50.844;5.304;2023-02-13T01:21:08;209.20;;;43.00;;
29938;SDS011;16799;50.844;5.304;2023-02-13T01:23:43;271.93;;;44.53;;
29938;SDS011;16799;50.844;5.304;2023-02-13T01:26:11;213.23;;;35.07;;
29938;SDS011;16799;50.844;5.304;2023-02-13T01:28:41;185.60;;;32.03;;
29938;SDS011;16799;50.844;5.304;2023-02-13T01:31:06;289.27;;;40.90;;
29938;SDS011;16799;50.844;5.304;2023-02-13T01:33:32;299.17;;;36.03;;
29938;SDS011;16799;50.844;5.304;2023-02-13T01:36:03;251.77;;;37.03;;
29938;SDS011;16799;50.844;5.304;2023-02-13T01:38:33;76.23;;;26.03;;
29938;SDS011;16799;50.844;5.304;2023-02-13T01:40:58;47.07;;;22.43;;
29938;SDS011;16799;50.844;5.304;2023-02-13T01:43:41;41.07;;;21.10;;
29938;SDS011;16799;50.844;5.304;2023-02-13T01:46:17;112.50;;;29.63;;
29938;SDS011;16799;50.844;5.304;2023-02-13T01:48:46;129.27;;;24.90;;
29938;SDS011;16799;50.844;5.304;2023-02-13T01:51:15;134.90;;;28.40;;
29938;SDS011;16799;50.844;5.304;2023-02-13T01:53:45;64.63;;;23.30;;
29938;SDS011;16799;50.844;5.304;2023-02-13T01:56:22;78.23;;;23.60;;
29938;SDS011;16799;50.844;5.304;2023-02-13T01:59:06;58.67;;;22.30;;
29938;SDS011;16799;50.844;5.304;2023-02-13T02:01:37;53.63;;;20.40;;
29938;SDS011;16799;50.844;5.304;2023-02-13T02:04:08;71.57;;;23.23;;
29938;SDS011;16799;50.844;5.304;2023-02-13T02:06:41;50.23;;;21.90;;
29938;SDS011;16799;50.844;5.304;2023-02-13T02:09:17;55.53;;;21.67;;
29938;SDS011;16799;50.844;5.304;2023-02-13T02:14:55;217.40;;;26.87;;
29938;SDS011;16799;50.844;5.304;2023-02-13T02:17:24;264.17;;;30.30;;
29938;SDS011;16799;50.844;5.304;2023-02-13T02:20:09;45.53;;;23.37;;
29938;SDS011;16799;50.844;5.304;2023-02-13T02:28:26;313.00;;;34.87;;
29938;SDS011;16799;50.844;5.304;2023-02-13T02:32:07;162.20;;;26.13;;
29938;SDS011;16799;50.844;5.304;2023-02-13T02:50:22;54.87;;;24.07;;
29938;SDS011;16799;50.844;5.304;2023-02-13T02:58:18;97.10;;;24.83;;
29938;SDS011;16799;50.844;5.304;2023-02-13T03:01:08;118.57;;;22.40;;
29938;SDS011;16799;50.844;5.304;2023-02-13T03:03:56;86.30;;;21.63;;
29938;SDS011;16799;50.844;5.304;2023-02-13T03:06:45;104.70;;;23.00;;
29938;SDS011;16799;50.844;5.304;2023-02-13T03:09:18;115.13;;;22.87;;
29938;SDS011;16799;50.844;5.304;2023-02-13T03:12:05;60.80;;;20.13;;
29938;SDS011;16799;50.844;5.304;2023-02-13T03:14:52;135.93;;;23.50;;
29938;SDS011;16799;50.844;5.304;2023-02-13T03:17:17;66.70;;;19.47;;
29938;SDS011;16799;50.844;5.304;2023-02-13T03:20:07;198.67;;;25.63;;
29938;SDS011;16799;50.844;5.304;2023-02-13T03:23:06;76.30;;;18.90;;
29938;SDS011;16799;50.844;5.304;2023-02-13T03:25:50;134.63;;;22.90;;
29938;SDS011;16799;50.844;5.304;2023-02-13T03:28:37;81.93;;;21.63;;
29938;SDS011;16799;50.844;5.304;2023-02-13T03:34:09;88.83;;;23.20;;
29938;SDS011;16799;50.844;5.304;2023-02-13T03:42:05;74.10;;;19.43;;
29938;SDS011;16799;50.844;5.304;2023-02-13T03:44:54;126.47;;;24.80;;
29938;SDS011;16799;50.844;5.304;2023-02-13T03:47:45;130.60;;;23.40;;
29938;SDS011;16799;50.844;5.304;2023-02-13T03:50:15;100.90;;;24.00;;
29938;SDS011;16799;50.844;5.304;2023-02-13T03:55:14;133.73;;;23.10;;
29938;SDS011;16799;50.844;5.304;2023-02-13T03:58:10;169.57;;;24.63;;
29938;SDS011;16799;50.844;5.304;2023-02-13T04:01:16;71.33;;;21.97;;
29938;SDS011;16799;50.844;5.304;2023-02-13T04:03:51;77.83;;;23.50;;
29938;SDS011;16799;50.844;5.304;2023-02-13T04:06:46;87.07;;;22.10;;
29938;SDS011;16799;50.844;5.304;2023-02-13T04:09:14;57.30;;;23.70;;
29938;SDS011;16799;50.844;5.304;2023-02-13T04:14:29;96.63;;;24.97;;
29938;SDS011;16799;50.844;5.304;2023-02-13T04:17:06;50.47;;;24.97;;
29938;SDS011;16799;50.844;5.304;2023-02-13T04:19:35;58.37;;;23.03;;
29938;SDS011;16799;50.844;5.304;2023-02-13T04:22:01;61.90;;;21.33;;
29938;SDS011;16799;50.844;5.304;2023-02-13T04:24:27;56.27;;;22.47;;
29938;SDS011;16799;50.844;5.304;2023-02-13T04:26:53;55.53;;;23.30;;
29938;SDS011;16799;50.844;5.304;2023-02-13T04:29:21;87.53;;;23.23;;
29938;SDS011;16799;50.844;5.304;2023-02-13T04:31:48;61.70;;;22.87;;
29938;SDS011;16799;50.844;5.304;2023-02-13T04:34:13;57.87;;;22.10;;
29938;SDS011;16799;50.844;5.304;2023-02-13T04:36:39;56.73;;;21.30;;
29938;SDS011;16799;50.844;5.304;2023-02-13T04:39:05;48.90;;;23.73;;
29938;SDS011;16799;50.844;5.304;2023-02-13T04:41:31;99.87;;;24.00;;
29938;SDS011;16799;50.844;5.304;2023-02-13T04:43:56;58.37;;;23.00;;
29938;SDS011;16799;50.844;5.304;2023-02-13T04:46:22;44.13;;;21.07;;
29938;SDS011;16799;50.844;5.304;2023-02-13T04:48:48;41.10;;;22.17;;
29938;SDS011;16799;50.844;5.304;2023-02-13T04:51:14;30.50;;;19.57;;
29938;SDS011;16799;50.844;5.304;2023-02-13T04:53:39;40.73;;;23.50;;
29938;SDS011;16799;50.844;5.304;2023-02-13T04:56:05;29.40;;;19.07;;
29938;SDS011;16799;50.844;5.304;2023-02-13T04:58:31;37.37;;;18.67;;
29938;SDS011;16799;50.844;5.304;2023-02-13T05:00:57;36.70;;;19.37;;
29938;SDS011;16799;50.844;5.304;2023-02-13T05:03:22;36.53;;;20.70;;
29938;SDS011;16799;50.844;5.304;2023-02-13T05:05:48;30.63;;;19.30;;
29938;SDS011;16799;50.844;5.304;2023-02-13T05:08:13;34.93;;;19.73;;
29938;SDS011;16799;50.844;5.304;2023-02-13T05:10:39;26.97;;;16.30;;
29938;SDS011;16799;50.844;5.304;2023-02-13T05:13:05;33.47;;;19.90;;
29938;SDS011;16799;50.844;5.304;2023-02-13T05:15:31;35.97;;;20.53;;
29938;SDS011;16799;50.844;5.304;2023-02-13T05:17:56;35.70;;;19.87;;
29938;SDS011;16799;50.844;5.304;2023-02-13T05:20:22;39.17;;;20.00;;
29938;SDS011;16799;50.844;5.304;2023-02-13T05:22:49;30.27;;;20.23;;
29938;SDS011;16799;50.844;5.304;2023-02-13T05:25:35;35.83;;;19.43;;
29938;SDS011;16799;50.844;5.304;2023-02-13T05:28:02;37.30;;;19.90;;
29938;SDS011;16799;50.844;5.304;2023-02-13T05:30:28;34.27;;;19.43;;
29938;SDS011;16799;50.844;5.304;2023-02-13T05:32:54;33.43;;;20.00;;
29938;SDS011;16799;50.844;5.304;2023-02-13T05:35:20;28.70;;;18.80;;
29938;SDS011;16799;50.844;5.304;2023-02-13T05:37:46;36.27;;;18.60;;
29938;SDS011;16799;50.844;5.304;2023-02-13T05:40:12;38.07;;;18.80;;
29938;SDS011;16799;50.844;5.304;2023-02-13T05:42:39;29.93;;;18.37;;
29938;SDS011;16799;50.844;5.304;2023-02-13T05:45:05;31.63;;;18.00;;
29938;SDS011;16799;50.844;5.304;2023-02-13T05:47:31;36.60;;;20.07;;
29938;SDS011;16799;50.844;5.304;2023-02-13T05:49:57;36.83;;;19.50;;
29938;SDS011;16799;50.844;5.304;2023-02-13T05:52:23;33.50;;;18.50;;
29938;SDS011;16799;50.844;5.304;2023-02-13T05:54:49;35.50;;;19.20;;
29938;SDS011;16799;50.844;5.304;2023-02-13T05:57:15;28.73;;;16.33;;
29938;SDS011;16799;50.844;5.304;2023-02-13T05:59:40;33.90;;;17.87;;
29938;SDS011;16799;50.844;5.304;2023-02-13T06:02:06;25.07;;;16.70;;
29938;SDS011;16799;50.844;5.304;2023-02-13T06:04:31;26.73;;;15.00;;
29938;SDS011;16799;50.844;5.304;2023-02-13T06:06:57;28.63;;;16.43;;
29938;SDS011;16799;50.844;5.304;2023-02-13T06:09:23;36.00;;;18.83;;
29938;SDS011;16799;50.844;5.304;2023-02-13T06:11:49;32.97;;;19.50;;
29938;SDS011;16799;50.844;5.304;2023-02-13T06:14:14;35.13;;;19.90;;
29938;SDS011;16799;50.844;5.304;2023-02-13T06:16:40;29.17;;;17.67;;
29938;SDS011;16799;50.844;5.304;2023-02-13T06:19:06;33.43;;;20.23;;
29938;SDS011;16799;50.844;5.304;2023-02-13T06:21:32;32.40;;;17.13;;
29938;SDS011;16799;50.844;5.304;2023-02-13T06:24:02;34.70;;;18.00;;
29938;SDS011;16799;50.844;5.304;2023-02-13T06:26:31;24.30;;;16.37;;
29938;SDS011;16799;50.844;5.304;2023-02-13T06:28:57;27.23;;;16.47;;
29938;SDS011;16799;50.844;5.304;2023-02-13T06:31:23;23.10;;;15.50;;
29938;SDS011;16799;50.844;5.304;2023-02-13T06:33:49;30.27;;;19.57;;
29938;SDS011;16799;50.844;5.304;2023-02-13T06:36:14;31.63;;;19.20;;
29938;SDS011;16799;50.844;5.304;2023-02-13T06:38:40;27.10;;;18.37;;
29938;SDS011;16799;50.844;5.304;2023-02-13T06:41:07;31.43;;;17.93;;
29938;SDS011;16799;50.844;5.304;2023-02-13T06:43:33;28.77;;;17.60;;
29938;SDS011;16799;50.844;5.304;2023-02-13T06:46:03;35.23;;;20.87;;
29938;SDS011;16799;50.844;5.304;2023-02-13T06:48:29;35.13;;;18.80;;
29938;SDS011;16799;50.844;5.304;2023-02-13T06:50:55;30.83;;;19.87;;
29938;SDS011;16799;50.844;5.304;2023-02-13T06:53:20;40.23;;;19.23;;
29938;SDS011;16799;50.844;5.304;2023-02-13T06:55:49;37.50;;;19.23;;
29938;SDS011;16799;50.844;5.304;2023-02-13T06:58:16;32.83;;;19.57;;
29938;SDS011;16799;50.844;5.304;2023-02-13T07:00:42;39.20;;;20.70;;
29938;SDS011;16799;50.844;5.304;2023-02-13T07:03:08;38.83;;;19.40;;
29938;SDS011;16799;50.844;5.304;2023-02-13T07:05:34;34.57;;;19.17;;
29938;SDS011;16799;50.844;5.304;2023-02-13T07:08:03;30.13;;;19.27;;
29938;SDS011;16799;50.844;5.304;2023-02-13T07:10:28;31.00;;;17.80;;
29938;SDS011;16799;50.844;5.304;2023-02-13T07:12:54;36.77;;;17.80;;
29938;SDS011;16799;50.844;5.304;2023-02-13T07:15:20;35.17;;;20.60;;
29938;SDS011;16799;50.844;5.304;2023-02-13T07:17:45;33.87;;;20.53;;
29938;SDS011;16799;50.844;5.304;2023-02-13T07:20:11;36.37;;;18.13;;
29938;SDS011;16799;50.844;5.304;2023-02-13T07:22:37;39.53;;;19.30;;
29938;SDS011;16799;50.844;5.304;2023-02-13T07:25:03;33.77;;;19.37;;
29938;SDS011;16799;50.844;5.304;2023-02-13T07:27:29;32.13;;;18.53;;
29938;SDS011;16799;50.844;5.304;2023-02-13T07:29:55;27.57;;;18.33;;
29938;SDS011;16799;50.844;5.304;2023-02-13T07:32:22;26.63;;;18.00;;
29938;SDS011;16799;50.844;5.304;2023-02-13T07:34:48;34.03;;;21.33;;
29938;SDS011;16799;50.844;5.304;2023-02-13T07:37:14;40.43;;;20.17;;
29938;SDS011;16799;50.844;5.304;2023-02-13T07:39:39;43.03;;;18.73;;
29938;SDS011;16799;50.844;5.304;2023-02-13T07:42:05;29.60;;;17.33;;
29938;SDS011;16799;50.844;5.304;2023-02-13T07:44:31;31.90;;;19.90;;
29938;SDS011;16799;50.844;5.304;2023-02-13T07:46:57;27.30;;;19.80;;
29938;SDS011;16799;50.844;5.304;2023-02-13T07:49:22;29.13;;;18.40;;
29938;SDS011;16799;50.844;5.304;2023-02-13T07:51:49;43.57;;;20.90;;
29938;SDS011;16799;50.844;5.304;2023-02-13T07:54:15;39.40;;;20.53;;
29938;SDS011;16799;50.844;5.304;2023-02-13T07:56:41;31.20;;;18.70;;
29938;SDS011;16799;50.844;5.304;2023-02-13T07:59:06;35.00;;;18.20;;
29938;SDS011;16799;50.844;5.304;2023-02-13T08:01:32;36.97;;;19.93;;
29938;SDS011;16799;50.844;5.304;2023-02-13T08:03:57;32.07;;;20.70;;
29938;SDS011;16799;50.844;5.304;2023-02-13T08:06:23;55.57;;;21.40;;
29938;SDS011;16799;50.844;5.304;2023-02-13T08:08:49;35.67;;;21.67;;
29938;SDS011;16799;50.844;5.304;2023-02-13T08:11:37;38.67;;;17.10;;
29938;SDS011;16799;50.844;5.304;2023-02-13T08:14:19;29.63;;;19.63;;
29938;SDS011;16799;50.844;5.304;2023-02-13T08:16:45;35.20;;;20.10;;
29938;SDS011;16799;50.844;5.304;2023-02-13T08:19:11;29.77;;;18.33;;
29938;SDS011;16799;50.844;5.304;2023-02-13T08:21:36;36.13;;;21.60;;
29938;SDS011;16799;50.844;5.304;2023-02-13T08:24:04;42.37;;;23.90;;
29938;SDS011;16799;50.844;5.304;2023-02-13T08:26:30;41.93;;;23.10;;
29938;SDS011;16799;50.844;5.304;2023-02-13T08:28:56;38.37;;;23.07;;
29938;SDS011;16799;50.844;5.304;2023-02-13T08:31:22;40.13;;;23.13;;
29938;SDS011;16799;50.844;5.304;2023-02-13T08:33:48;40.13;;;23.37;;
29938;SDS011;16799;50.844;5.304;2023-02-13T08:36:14;54.67;;;29.60;;
29938;SDS011;16799;50.844;5.304;2023-02-13T08:38:40;62.63;;;31.97;;
29938;SDS011;16799;50.844;5.304;2023-02-13T08:41:05;52.30;;;29.80;;
29938;SDS011;16799;50.844;5.304;2023-02-13T08:43:31;51.03;;;28.90;;
29938;SDS011;16799;50.844;5.304;2023-02-13T08:45:57;60.80;;;32.37;;
29938;SDS011;16799;50.844;5.304;2023-02-13T08:48:24;56.77;;;29.13;;
29938;SDS011;16799;50.844;5.304;2023-02-13T08:50:50;53.50;;;30.70;;
29938;SDS011;16799;50.844;5.304;2023-02-13T08:53:15;47.63;;;28.60;;
29938;SDS011;16799;50.844;5.304;2023-02-13T08:55:41;56.93;;;30.00;;
29938;SDS011;16799;50.844;5.304;2023-02-13T08:58:07;49.00;;;27.67;;
29938;SDS011;16799;50.844;5.304;2023-02-13T09:00:32;53.47;;;28.93;;
29938;SDS011;16799;50.844;5.304;2023-02-13T09:03:01;46.20;;;27.67;;
29938;SDS011;16799;50.844;5.304;2023-02-13T09:05:28;52.83;;;28.13;;
29938;SDS011;16799;50.844;5.304;2023-02-13T09:07:58;49.03;;;28.10;;
29938;SDS011;16799;50.844;5.304;2023-02-13T09:10:25;48.40;;;27.13;;
29938;SDS011;16799;50.844;5.304;2023-02-13T09:12:51;46.97;;;27.37;;
29938;SDS011;16799;50.844;5.304;2023-02-13T09:15:17;51.87;;;27.67;;
29938;SDS011;16799;50.844;5.304;2023-02-13T09:17:43;51.87;;;28.30;;
29938;SDS011;16799;50.844;5.304;2023-02-13T09:20:08;44.20;;;26.13;;
29938;SDS011;16799;50.844;5.304;2023-02-13T09:22:36;54.87;;;27.27;;
29938;SDS011;16799;50.844;5.304;2023-02-13T09:25:02;49.53;;;25.70;;
29938;SDS011;16799;50.844;5.304;2023-02-13T09:27:28;53.17;;;29.60;;
29938;SDS011;16799;50.844;5.304;2023-02-13T09:29:54;45.27;;;27.60;;
29938;SDS011;16799;50.844;5.304;2023-02-13T09:32:20;47.90;;;27.07;;
29938;SDS011;16799;50.844;5.304;2023-02-13T09:34:45;48.50;;;28.30;;
29938;SDS011;16799;50.844;5.304;2023-02-13T09:37:11;46.57;;;28.60;;
29938;SDS011;16799;50.844;5.304;2023-02-13T09:39:37;46.10;;;27.20;;
29938;SDS011;16799;50.844;5.304;2023-02-13T09:42:04;45.93;;;26.80;;
29938;SDS011;16799;50.844;5.304;2023-02-13T09:44:41;43.47;;;24.57;;
29938;SDS011;16799;50.844;5.304;2023-02-13T09:49:50;42.40;;;24.47;;
29938;SDS011;16799;50.844;5.304;2023-02-13T09:52:19;47.17;;;26.27;;
29938;SDS011;16799;50.844;5.304;2023-02-13T09:54:45;43.67;;;25.67;;
29938;SDS011;16799;50.844;5.304;2023-02-13T10:05:37;47.33;;;23.57;;
29938;SDS011;16799;50.844;5.304;2023-02-13T10:08:24;37.67;;;21.83;;
29938;SDS011;16799;50.844;5.304;2023-02-13T10:14:16;30.47;;;19.33;;
29938;SDS011;16799;50.844;5.304;2023-02-13T10:16:52;28.73;;;18.23;;
29938;SDS011;16799;50.844;5.304;2023-02-13T10:22:16;34.93;;;19.90;;
29938;SDS011;16799;50.844;5.304;2023-02-13T10:27:45;23.87;;;15.63;;
29938;SDS011;16799;50.844;5.304;2023-02-13T10:30:20;27.73;;;16.87;;
29938;SDS011;16799;50.844;5.304;2023-02-13T10:32:58;26.13;;;17.13;;
29938;SDS011;16799;50.844;5.304;2023-02-13T10:35:48;22.67;;;17.23;;
29938;SDS011;16799;50.844;5.304;2023-02-13T10:38:31;27.43;;;15.30;;
29938;SDS011;16799;50.844;5.304;2023-02-13T10:41:02;18.30;;;14.27;;
29938;SDS011;16799;50.844;5.304;2023-02-13T11:00:17;19.67;;;12.60;;
29938;SDS011;16799;50.844;5.304;2023-02-13T11:02:57;19.40;;;15.50;;
29938;SDS011;16799;50.844;5.304;2023-02-13T11:05:24;16.57;;;13.03;;
29938;SDS011;16799;50.844;5.304;2023-02-13T11:08:08;17.50;;;13.20;;
29938;SDS011;16799;50.844;5.304;2023-02-13T11:10:42;18.13;;;12.53;;
29938;SDS011;16799;50.844;5.304;2023-02-13T11:13:29;16.97;;;12.77;;
29938;SDS011;16799;50.844;5.304;2023-02-13T11:16:01;24.37;;;12.80;;
29938;SDS011;16799;50.844;5.304;2023-02-13T11:18:38;15.77;;;12.97;;
29938;SDS011;16799;50.844;5.304;2023-02-13T11:21:20;15.53;;;13.87;;
29938;SDS011;16799;50.844;5.304;2023-02-13T11:23:55;13.90;;;12.50;;
29938;SDS011;16799;50.844;5.304;2023-02-13T11:26:42;16.30;;;14.13;;
29938;SDS011;16799;50.844;5.304;2023-02-13T11:31:46;17.67;;;13.57;;
29938;SDS011;16799;50.844;5.304;2023-02-13T11:34:27;13.77;;;11.90;;
29938;SDS011;16799;50.844;5.304;2023-02-13T11:37:40;14.67;;;12.20;;
29938;SDS011;16799;50.844;5.304;2023-02-13T11:39:43;13.90;;;12.43;;
29938;SDS011;16799;50.844;5.304;2023-02-13T11:42:20;12.97;;;11.27;;
29938;SDS011;16799;50.844;5.304;2023-02-13T11:44:56;11.40;;;9.90;;
29938;SDS011;16799;50.844;5.304;2023-02-13T11:50:01;13.93;;;10.47;;
29938;SDS011;16799;50.844;5.304;2023-02-13T11:52:29;12.90;;;9.90;;
29938;SDS011;16799;50.844;5.304;2023-02-13T11:55:04;12.80;;;11.50;;
29938;SDS011;16799;50.844;5.304;2023-02-13T11:57:56;12.80;;;10.33;;
29938;SDS011;16799;50.844;5.304;2023-02-13T12:01:25;11.87;;;10.53;;
29938;SDS011;16799;50.844;5.304;2023-02-13T12:03:39;10.60;;;9.60;;
29938;SDS011;16799;50.844;5.304;2023-02-13T12:06:12;11.27;;;9.67;;
29938;SDS011;16799;50.844;5.304;2023-02-13T12:08:40;8.97;;;8.13;;
29938;SDS011;16799;50.844;5.304;2023-02-13T12:13:48;10.27;;;9.27;;
29938;SDS011;16799;50.844;5.304;2023-02-13T12:18:55;8.33;;;7.63;;
29938;SDS011;16799;50.844;5.304;2023-02-13T12:21:44;10.30;;;7.87;;
29938;SDS011;16799;50.844;5.304;2023-02-13T12:27:19;8.27;;;7.60;;
29938;SDS011;16799;50.844;5.304;2023-02-13T12:49:34;11.93;;;10.70;;
29938;SDS011;16799;50.844;5.304;2023-02-13T13:00:45;9.67;;;8.67;;
29938;SDS011;16799;50.844;5.304;2023-02-13T13:25:51;6.70;;;6.17;;
29938;SDS011;16799;50.844;5.304;2023-02-13T13:28:41;7.67;;;7.00;;
29938;SDS011;16799;50.844;5.304;2023-02-13T13:31:10;7.77;;;7.10;;
29938;SDS011;16799;50.844;5.304;2023-02-13T13:33:42;7.40;;;6.80;;
29938;SDS011;16799;50.844;5.304;2023-02-13T13:49:54;6.53;;;5.90;;
29938;SDS011;16799;50.844;5.304;2023-02-13T13:54:50;6.53;;;6.03;;
29938;SDS011;16799;50.844;5.304;2023-02-13T13:57:19;6.10;;;5.13;;
29938;SDS011;16799;50.844;5.304;2023-02-13T14:07:46;10.67;;;6.83;;
29938;SDS011;16799;50.844;5.304;2023-02-13T14:15:47;8.47;;;7.40;;
29938;SDS011;16799;50.844;5.304;2023-02-13T14:18:18;8.77;;;7.30;;
29938;SDS011;16799;50.844;5.304;2023-02-13T14:23:25;17.93;;;9.60;;
29938;SDS011;16799;50.844;5.304;2023-02-13T14:26:27;17.13;;;12.00;;
29938;SDS011;16799;50.844;5.304;2023-02-13T14:31:34;18.80;;;9.00;;
29938;SDS011;16799;50.844;5.304;2023-02-13T14:36:35;8.13;;;7.33;;
29938;SDS011;16799;50.844;5.304;2023-02-13T14:39:07;12.63;;;7.10;;
29938;SDS011;16799;50.844;5.304;2023-02-13T14:44:19;7.67;;;6.87;;
29938;SDS011;16799;50.844;5.304;2023-02-13T14:46:55;18.30;;;7.43;;
29938;SDS011;16799;50.844;5.304;2023-02-13T14:51:50;13.23;;;6.03;;
29938;SDS011;16799;50.844;5.304;2023-02-13T14:57:09;9.30;;;6.93;;
29938;SDS011;16799;50.844;5.304;2023-02-13T14:59:45;11.63;;;5.37;;
29938;SDS011;16799;50.844;5.304;2023-02-13T15:02:25;8.03;;;5.20;;
29938;SDS011;16799;50.844;5.304;2023-02-13T15:05:01;5.67;;;5.20;;
29938;SDS011;16799;50.844;5.304;2023-02-13T15:07:33;5.20;;;4.80;;
29938;SDS011;16799;50.844;5.304;2023-02-13T15:13:17;9.13;;;5.40;;
29938;SDS011;16799;50.844;5.304;2023-02-13T15:16:10;6.30;;;5.60;;
29938;SDS011;16799;50.844;5.304;2023-02-13T15:18:43;6.60;;;5.30;;
29938;SDS011;16799;50.844;5.304;2023-02-13T15:21:17;5.60;;;4.90;;
29938;SDS011;16799;50.844;5.304;2023-02-13T15:23:48;6.53;;;5.47;;
29938;SDS011;16799;50.844;5.304;2023-02-13T15:26:20;7.50;;;4.77;;
29938;SDS011;16799;50.844;5.304;2023-02-13T15:29:01;5.00;;;4.50;;
29938;SDS011;16799;50.844;5.304;2023-02-13T15:31:37;6.03;;;4.90;;
29938;SDS011;16799;50.844;5.304;2023-02-13T15:34:02;5.07;;;4.53;;
29938;SDS011;16799;50.844;5.304;2023-02-13T15:36:38;6.17;;;4.67;;
29938;SDS011;16799;50.844;5.304;2023-02-13T15:39:05;5.00;;;4.50;;
29938;SDS011;16799;50.844;5.304;2023-02-13T15:41:36;5.80;;;5.30;;
29938;SDS011;16799;50.844;5.304;2023-02-13T15:44:05;8.30;;;5.30;;
29938;SDS011;16799;50.844;5.304;2023-02-13T15:46:35;8.20;;;5.97;;
29938;SDS011;16799;50.844;5.304;2023-02-13T15:49:06;7.00;;;6.27;;
29938;SDS011;16799;50.844;5.304;2023-02-13T15:51:37;18.80;;;6.67;;
29938;SDS011;16799;50.844;5.304;2023-02-13T15:54:04;10.93;;;7.27;;
29938;SDS011;16799;50.844;5.304;2023-02-13T15:56:51;7.03;;;5.67;;
29938;SDS011;16799;50.844;5.304;2023-02-13T15:59:18;8.40;;;6.30;;
29938;SDS011;16799;50.844;5.304;2023-02-13T16:01:45;8.40;;;6.60;;
29938;SDS011;16799;50.844;5.304;2023-02-13T16:04:12;9.87;;;5.90;;
29938;SDS011;16799;50.844;5.304;2023-02-13T16:06:43;6.80;;;5.40;;
29938;SDS011;16799;50.844;5.304;2023-02-13T16:09:23;7.97;;;6.20;;
29938;SDS011;16799;50.844;5.304;2023-02-13T16:12:00;7.30;;;6.60;;
29938;SDS011;16799;50.844;5.304;2023-02-13T16:14:50;17.63;;;7.23;;
29938;SDS011;16799;50.844;5.304;2023-02-13T16:17:25;6.83;;;6.20;;
29938;SDS011;16799;50.844;5.304;2023-02-13T16:20:04;8.10;;;6.20;;
29938;SDS011;16799;50.844;5.304;2023-02-13T16:22:32;10.63;;;6.17;;
29938;SDS011;16799;50.844;5.304;2023-02-13T16:27:51;6.20;;;5.60;;
29938;SDS011;16799;50.844;5.304;2023-02-13T16:30:50;13.17;;;5.00;;
29938;SDS011;16799;50.844;5.304;2023-02-13T16:38:53;11.47;;;7.13;;
29938;SDS011;16799;50.844;5.304;2023-02-13T16:51:11;20.33;;;9.67;;
29938;SDS011;16799;50.844;5.304;2023-02-13T16:53:38;18.03;;;9.10;;
29938;SDS011;16799;50.844;5.304;2023-02-13T16:56:05;13.20;;;7.93;;
29938;SDS011;16799;50.844;5.304;2023-02-13T16:58:33;9.23;;;6.97;;
29938;SDS011;16799;50.844;5.304;2023-02-13T17:00:59;14.03;;;8.30;;
29938;SDS011;16799;50.844;5.304;2023-02-13T17:03:26;9.43;;;7.30;;
29938;SDS011;16799;50.844;5.304;2023-02-13T17:05:52;30.80;;;11.97;;
29938;SDS011;16799;50.844;5.304;2023-02-13T17:08:19;18.10;;;11.43;;
29938;SDS011;16799;50.844;5.304;2023-02-13T17:11:02;12.90;;;8.47;;
29938;SDS011;16799;50.844;5.304;2023-02-13T17:13:30;18.03;;;10.47;;
29938;SDS011;16799;50.844;5.304;2023-02-13T17:15:55;14.10;;;9.23;;
29938;SDS011;16799;50.844;5.304;2023-02-13T17:18:22;17.60;;;11.00;;
29938;SDS011;16799;50.844;5.304;2023-02-13T17:20:48;17.20;;;11.00;;
29938;SDS011;16799;50.844;5.304;2023-02-13T17:23:19;10.43;;;8.00;;
29938;SDS011;16799;50.844;5.304;2023-02-13T17:25:47;21.70;;;11.47;;
29938;SDS011;16799;50.844;5.304;2023-02-13T17:28:15;14.87;;;10.20;;
29938;SDS011;16799;50.844;5.304;2023-02-13T17:30:43;22.53;;;13.47;;
29938;SDS011;16799;50.844;5.304;2023-02-13T17:33:13;20.47;;;12.27;;
29938;SDS011;16799;50.844;5.304;2023-02-13T17:35:41;17.47;;;12.03;;
29938;SDS011;16799;50.844;5.304;2023-02-13T17:38:08;19.97;;;11.60;;
29938;SDS011;16799;50.844;5.304;2023-02-13T17:40:34;18.57;;;12.53;;
29938;SDS011;16799;50.844;5.304;2023-02-13T17:43:01;24.90;;;10.20;;
29938;SDS011;16799;50.844;5.304;2023-02-13T17:45:28;33.43;;;12.23;;
29938;SDS011;16799;50.844;5.304;2023-02-13T17:47:56;18.43;;;11.17;;
29938;SDS011;16799;50.844;5.304;2023-02-13T17:50:22;18.33;;;10.70;;
29938;SDS011;16799;50.844;5.304;2023-02-13T17:52:48;18.70;;;10.47;;
29938;SDS011;16799;50.844;5.304;2023-02-13T17:57:43;12.83;;;10.97;;
29938;SDS011;16799;50.844;5.304;2023-02-13T18:00:08;20.43;;;11.13;;
29938;SDS011;16799;50.844;5.304;2023-02-13T18:02:34;17.90;;;10.37;;
29938;SDS011;16799;50.844;5.304;2023-02-13T18:05:00;20.67;;;11.80;;
29938;SDS011;16799;50.844;5.304;2023-02-13T18:07:26;16.23;;;11.60;;
29938;SDS011;16799;50.844;5.304;2023-02-13T18:09:52;15.23;;;10.73;;
29938;SDS011;16799;50.844;5.304;2023-02-13T18:12:19;23.90;;;14.20;;
29938;SDS011;16799;50.844;5.304;2023-02-13T18:14:46;18.63;;;12.63;;
29938;SDS011;16799;50.844;5.304;2023-02-13T18:17:12;24.80;;;12.67;;